Portada
METAR-TAF:

METAR-TAF

Aeroports :

Yangon, Myanmar

latitud: 16-46N, longitud: 096-10E, altitud: 14 m

Observació

L'informe es va fer fa 29 minuts, a les 12:00 UTC
Vent 4 kt del Sud-Oest
Temperatura 30°C
Humitat 52%
Pressió 1012 hPa
Visibilitat: 7000 m

METAR: VYYY 171200Z 23004KT 7000 NSC 30/19 Q1012 NOSIG

Hora: 18:59 (12:29 UTC)

Pronòstic

L'informe es va fer fa 1 hora i 29 minuts, a les 11:00 UTC
Pronòstic vàlid del 17 a les 12 UTC al 18 a les 12 UTC
Vent 4 kt del Sud
Visibilitat: 7000 m
Temporalment
l' 17 a les 12 UTC al 17 a les 18 UTC
Vent 4 kt del Sud/Sud-Oest
Visibilitat: 4000 m
boirina

TAF: VYYY 171100Z 1712/1812 19004KT 7000 NSC TEMPO 1712/1718 20004KT 4000 BR NSC

Observacions i pronòstics meteorològics de més de 4000 aeroports (METAR i TAF).

Les estacions disponibles són els punts grocs i vermells al mapa.

Posi el ratolí al punt desitjat per veure el nom de l'estació.

Feu clic per veure les observacions i els pronòstics meteorològics.

Per canviar el mapa: feu clic els botons verds amb una creu de color negre per apropar; al botó verd amb un guió per allunyar la imatge; o en les fletxes verdes per a mapes adjacents.


METAR-TAF: